TimeEDT,TemperatureF,Dew PointF,Humidity,Sea Level PressureIn,VisibilityMPH,Wind Direction,Wind SpeedMPH,Gust SpeedMPH,PrecipitationIn,Events,Conditions,WindDirDegrees,DateUTC
12:52 AM,62.1,54.0,75,30.15,10.0,SE,8.1,-,N/A,,Clear,140,2013-08-17 04:52:00
1:52 AM,61.0,54.0,78,30.15,10.0,Variable,5.8,-,N/A,,Clear,0,2013-08-17 05:52:00
2:52 AM,60.1,53.1,78,30.15,10.0,SE,5.8,-,N/A,,Clear,130,2013-08-17 06:52:00
3:52 AM,59.0,52.0,78,30.15,10.0,Calm,Calm,-,N/A,,Clear,0,2013-08-17 07:52:00
4:52 AM,57.9,52.0,81,30.16,10.0,ENE,3.5,-,N/A,,Clear,70,2013-08-17 08:52:00
5:52 AM,57.9,51.1,78,30.17,10.0,East,4.6,-,N/A,,Clear,80,2013-08-17 09:52:00
6:52 AM,57.9,51.1,78,30.18,10.0,East,4.6,-,N/A,,Clear,80,2013-08-17 10:52:00
7:52 AM,57.9,53.1,84,30.19,10.0,Calm,Calm,-,N/A,,Clear,0,2013-08-17 11:52:00
8:52 AM,62.1,53.1,72,30.19,10.0,Variable,4.6,-,N/A,,Clear,0,2013-08-17 12:52:00
9:52 AM,64.0,52.0,65,30.19,10.0,East,6.9,-,N/A,,Clear,100,2013-08-17 13:52:00
10:52 AM,66.0,52.0,60,30.20,10.0,Variable,6.9,-,N/A,,Partly Cloudy,0,2013-08-17 14:52:00
11:52 AM,68.0,53.1,59,30.20,10.0,Variable,5.8,-,N/A,,Partly Cloudy,0,2013-08-17 15:52:00
12:52 PM,69.1,53.1,57,30.19,10.0,Variable,6.9,20.7,N/A,,Partly Cloudy,0,2013-08-17 16:52:00
1:26 PM,68.0,55.4,64,30.26,10.0,SE,8.1,16.1,N/A,,Mostly Cloudy,130,2013-08-17 17:26:00
1:52 PM,68.0,55.0,63,30.18,10.0,SE,8.1,17.3,N/A,,Overcast,140,2013-08-17 17:52:00
2:52 PM,66.9,55.9,68,30.18,10.0,SE,5.8,-,N/A,,Overcast,140,2013-08-17 18:52:00
3:52 PM,66.9,57.0,70,30.17,10.0,Variable,5.8,-,N/A,,Overcast,0,2013-08-17 19:52:00
4:52 PM,64.9,57.0,75,30.19,10.0,Variable,3.5,-,N/A,,Overcast,0,2013-08-17 20:52:00
5:15 PM,64.4,57.2,77,30.25,10.0,Variable,3.5,-,N/A,,Overcast,0,2013-08-17 21:15:00
5:45 PM,64.4,57.2,77,30.25,10.0,Variable,3.5,-,N/A,,Overcast,0,2013-08-17 21:45:00
5:52 PM,64.9,57.9,78,30.19,10.0,Calm,Calm,-,N/A,,Overcast,0,2013-08-17 21:52:00
6:33 PM,62.6,57.2,82,30.25,3.0,East,4.6,-,0.00,Rain,Light Rain,100,2013-08-17 22:33:00
6:36 PM,62.6,57.2,82,30.24,2.5,East,6.9,-,0.00,Rain,Light Rain,90,2013-08-17 22:36:00
6:52 PM,63.0,59.0,87,30.19,2.5,East,5.8,-,0.01,Rain,Light Rain,100,2013-08-17 22:52:00
7:01 PM,62.6,59.0,88,30.25,2.5,East,4.6,-,0.00,Rain,Light Rain,80,2013-08-17 23:01:00
7:19 PM,62.6,59.0,88,30.26,3.0,East,3.5,-,0.00,Rain,Light Rain,90,2013-08-17 23:19:00
7:43 PM,62.6,57.2,82,30.24,5.0,East,8.1,-,0.01,,Haze,90,2013-08-17 23:43:00
7:52 PM,63.0,57.9,84,30.18,2.5,East,8.1,-,0.01,,Haze,100,2013-08-17 23:52:00
8:05 PM,62.6,57.2,82,30.23,3.0,East,8.1,-,0.00,Rain,Light Rain,90,2013-08-18 00:05:00
8:15 PM,62.6,57.2,82,30.24,4.0,East,8.1,-,0.00,,Overcast,80,2013-08-18 00:15:00
8:52 PM,63.0,57.9,84,30.18,5.0,East,4.6,-,0.00,,Haze,90,2013-08-18 00:52:00
9:15 PM,62.6,57.2,82,30.26,2.5,East,3.5,-,0.01,,Haze,80,2013-08-18 01:15:00
9:23 PM,62.6,57.2,82,30.26,3.0,Variable,3.5,-,0.01,,Haze,0,2013-08-18 01:23:00
9:31 PM,62.6,57.2,82,30.26,2.5,Calm,Calm,-,0.01,Rain,Light Rain,0,2013-08-18 01:31:00
9:39 PM,62.6,57.2,82,30.26,3.0,East,5.8,-,0.01,Rain,Light Rain,80,2013-08-18 01:39:00
9:52 PM,63.0,57.9,84,30.18,4.0,East,5.8,-,0.02,Rain,Light Rain,80,2013-08-18 01:52:00
10:01 PM,62.6,57.2,82,30.25,1.8,Variable,4.6,-,0.00,,Overcast,0,2013-08-18 02:01:00
10:07 PM,62.6,57.2,82,30.25,0.8,East,5.8,-,0.00,,Mist,90,2013-08-18 02:07:00
10:22 PM,62.6,57.2,82,30.26,1.2,Variable,5.8,-,0.00,,Overcast,0,2013-08-18 02:22:00
10:26 PM,62.6,57.2,82,30.26,3.0,ENE,5.8,-,0.00,,Overcast,60,2013-08-18 02:26:00
10:52 PM,63.0,57.9,84,30.18,4.0,East,6.9,-,0.00,,Haze,90,2013-08-18 02:52:00
11:52 PM,62.1,57.9,86,30.17,2.5,East,6.9,-,N/A,,Overcast,90,2013-08-18 03:52:00